createdAt,value
2018-09-04T00:02:06.072Z,17.00
2018-09-04T00:04:41.539Z,17.00
2018-09-04T00:07:20.117Z,17.00
2018-09-04T00:09:55.762Z,16.90
2018-09-04T00:12:30.952Z,16.90
2018-09-04T00:15:06.549Z,16.80
2018-09-04T00:17:41.721Z,16.80
2018-09-04T00:20:17.336Z,16.80
2018-09-04T00:22:52.939Z,16.70
2018-09-04T00:25:28.349Z,16.70
2018-09-04T00:28:03.698Z,16.70
2018-09-04T00:30:39.090Z,16.70
2018-09-04T00:33:14.557Z,16.70
2018-09-04T00:35:50.006Z,16.70
2018-09-04T00:38:25.425Z,16.60
2018-09-04T00:41:01.000Z,16.60
2018-09-04T00:43:36.464Z,16.60
2018-09-04T00:46:11.933Z,16.60
2018-09-04T00:48:47.362Z,16.60
2018-09-04T00:51:22.903Z,16.60
2018-09-04T00:53:58.110Z,16.60
2018-09-04T00:56:33.496Z,16.60
2018-09-04T00:59:09.262Z,16.60
2018-09-04T01:01:44.616Z,16.60
2018-09-04T01:04:20.069Z,16.60
2018-09-04T01:06:55.585Z,16.60
2018-09-04T01:09:31.612Z,16.50
2018-09-04T01:12:07.214Z,16.60
2018-09-04T01:14:42.918Z,16.50
2018-09-04T01:17:18.216Z,16.50
2018-09-04T01:19:53.700Z,16.50
2018-09-04T01:22:29.337Z,16.50
2018-09-04T01:25:04.784Z,16.50
2018-09-04T01:27:40.325Z,16.40
2018-09-04T01:30:15.873Z,16.40
2018-09-04T01:32:51.332Z,16.40
2018-09-04T01:35:26.704Z,16.40
2018-09-04T01:38:02.282Z,16.40
2018-09-04T01:40:37.521Z,16.40
2018-09-04T01:43:13.229Z,16.40
2018-09-04T01:45:48.817Z,16.40
2018-09-04T01:48:24.393Z,16.40
2018-09-04T01:50:59.912Z,16.30
2018-09-04T01:53:36.009Z,16.30
2018-09-04T01:56:11.203Z,16.30
2018-09-04T01:58:46.712Z,16.20
2018-09-04T02:01:22.017Z,16.20
2018-09-04T02:03:57.513Z,16.20
2018-09-04T02:06:32.967Z,16.10
2018-09-04T02:09:08.729Z,16.20
2018-09-04T02:11:44.021Z,16.10
2018-09-04T02:14:19.377Z,16.10
2018-09-04T02:16:54.821Z,16.10
2018-09-04T02:19:30.357Z,16.10
2018-09-04T02:22:05.933Z,16.00
2018-09-04T02:24:41.445Z,16.00
2018-09-04T02:27:16.897Z,15.90
2018-09-04T02:29:52.441Z,15.90
2018-09-04T02:32:27.569Z,15.90
2018-09-04T02:35:03.193Z,15.90
2018-09-04T02:37:38.913Z,15.80
2018-09-04T02:40:14.563Z,15.90
2018-09-04T02:42:50.128Z,15.80
2018-09-04T02:45:25.777Z,15.80
2018-09-04T02:48:01.191Z,15.80
2018-09-04T02:50:36.620Z,15.80
2018-09-04T02:53:11.885Z,15.80
2018-09-04T02:55:47.285Z,15.80
2018-09-04T02:58:22.774Z,15.70
2018-09-04T03:00:58.274Z,15.70
2018-09-04T03:03:33.569Z,15.70
2018-09-04T03:06:08.979Z,15.70
2018-09-04T03:08:44.336Z,15.70
2018-09-04T03:11:19.701Z,15.80
2018-09-04T03:13:57.067Z,15.70
2018-09-04T03:16:32.479Z,15.80
2018-09-04T03:19:07.692Z,15.80
2018-09-04T03:21:43.170Z,15.80
2018-09-04T03:24:18.569Z,15.90
2018-09-04T03:26:54.030Z,15.90
2018-09-04T03:29:29.499Z,16.00
2018-09-04T03:32:05.007Z,16.00
2018-09-04T03:34:40.441Z,16.00
2018-09-04T03:37:16.041Z,16.10
2018-09-04T03:39:51.412Z,16.10
2018-09-04T03:42:26.884Z,16.10
2018-09-04T03:45:02.409Z,16.10
2018-09-04T03:47:38.223Z,16.10
2018-09-04T03:50:13.653Z,16.20
2018-09-04T03:52:49.058Z,16.20
2018-09-04T03:55:24.445Z,16.20
2018-09-04T03:57:59.890Z,16.20
2018-09-04T04:00:35.357Z,16.30
2018-09-04T04:03:10.768Z,16.30
2018-09-04T04:05:46.301Z,16.30
2018-09-04T04:08:21.588Z,16.40
2018-09-04T04:10:56.985Z,16.40
2018-09-04T04:13:32.617Z,16.40
2018-09-04T04:16:08.051Z,16.40
2018-09-04T04:18:43.732Z,16.50
2018-09-04T04:21:19.251Z,16.40
2018-09-04T04:23:54.952Z,16.50
2018-09-04T04:26:30.364Z,16.50
2018-09-04T04:29:05.938Z,16.50
2018-09-04T04:31:41.566Z,16.50
2018-09-04T04:34:17.122Z,16.50
2018-09-04T04:36:52.621Z,16.60
2018-09-04T04:39:28.156Z,16.60
2018-09-04T04:42:03.661Z,16.60
2018-09-04T04:44:39.114Z,16.70
2018-09-04T04:47:14.551Z,16.70
2018-09-04T04:49:50.037Z,16.70
2018-09-04T04:52:25.539Z,16.70
2018-09-04T04:55:01.094Z,16.70
2018-09-04T04:57:36.409Z,16.70
2018-09-04T05:00:11.879Z,16.70
2018-09-04T05:02:47.373Z,16.80
2018-09-04T05:05:23.090Z,16.80
2018-09-04T05:07:58.613Z,16.80
2018-09-04T05:10:34.173Z,16.90
2018-09-04T05:13:09.725Z,16.80
2018-09-04T05:15:45.490Z,16.90
2018-09-04T05:18:20.693Z,16.90
2018-09-04T05:20:56.129Z,16.90
2018-09-04T05:23:31.481Z,16.90
2018-09-04T05:26:07.102Z,17.00
2018-09-04T05:28:42.634Z,17.00
2018-09-04T05:31:18.056Z,17.10
2018-09-04T05:33:53.689Z,17.00
2018-09-04T05:36:29.190Z,16.90
2018-09-04T05:39:07.981Z,16.90
2018-09-04T05:41:43.413Z,17.00
2018-09-04T05:44:18.965Z,17.00
2018-09-04T05:46:54.925Z,17.00
2018-09-04T05:49:33.930Z,16.90
2018-09-04T05:52:09.349Z,17.00
2018-09-04T05:54:44.709Z,17.10
2018-09-04T05:57:20.065Z,17.00
2018-09-04T05:59:55.453Z,17.10
2018-09-04T06:02:31.723Z,17.20
2018-09-04T06:05:07.168Z,17.30
2018-09-04T06:07:42.869Z,17.30
2018-09-04T06:10:18.243Z,17.30
2018-09-04T06:12:53.697Z,17.40
2018-09-04T06:15:29.092Z,17.30
2018-09-04T06:18:04.902Z,17.40
2018-09-04T06:20:40.127Z,17.30
2018-09-04T06:23:15.532Z,17.20
2018-09-04T06:25:50.827Z,17.20
2018-09-04T06:28:26.433Z,17.20
2018-09-04T06:31:01.793Z,17.30
2018-09-04T06:33:37.628Z,17.30
2018-09-04T06:36:13.180Z,17.40
2018-09-04T06:38:48.597Z,17.50
2018-09-04T06:41:23.926Z,17.60
2018-09-04T06:43:59.285Z,17.70
2018-09-04T06:46:35.024Z,17.70
2018-09-04T06:49:10.462Z,17.70
2018-09-04T06:51:45.995Z,17.70
2018-09-04T06:54:21.669Z,17.60
2018-09-04T06:56:57.166Z,17.70
2018-09-04T06:59:32.626Z,17.70
2018-09-04T07:02:08.111Z,17.80
2018-09-04T07:04:43.755Z,17.90
2018-09-04T07:07:19.093Z,17.90
2018-09-04T07:09:54.580Z,17.90
2018-09-04T07:12:29.845Z,17.70
2018-09-04T07:15:05.648Z,17.90
2018-09-04T07:17:41.019Z,18.00
2018-09-04T07:20:16.881Z,18.10
2018-09-04T07:22:52.169Z,18.20
2018-09-04T07:25:27.582Z,18.20
2018-09-04T07:28:02.974Z,18.10
2018-09-04T07:30:38.438Z,18.10
2018-09-04T07:33:13.938Z,18.10
2018-09-04T07:35:49.473Z,18.20
2018-09-04T07:38:24.964Z,18.30
2018-09-04T07:41:00.479Z,18.30
2018-09-04T07:43:35.910Z,18.30
2018-09-04T07:46:11.697Z,18.40
2018-09-04T07:48:47.018Z,18.50
2018-09-04T07:51:22.565Z,18.60
2018-09-04T07:53:57.869Z,18.50
2018-09-04T07:56:33.289Z,18.40
2018-09-04T07:59:08.638Z,18.50
2018-09-04T08:01:44.126Z,18.80
2018-09-04T08:04:19.617Z,18.80
2018-09-04T08:06:55.158Z,19.00
2018-09-04T08:09:30.377Z,19.00
2018-09-04T08:12:06.126Z,19.20
2018-09-04T08:14:48.088Z,19.10
2018-09-04T08:17:23.607Z,19.40
2018-09-04T08:19:59.104Z,19.80
2018-09-04T08:22:34.753Z,20.00
2018-09-04T08:25:09.999Z,19.90
2018-09-04T08:27:45.410Z,20.10
2018-09-04T08:30:20.625Z,20.40
2018-09-04T08:32:56.439Z,21.00
2018-09-04T08:35:31.892Z,21.50
2018-09-04T08:38:07.361Z,21.40
2018-09-04T08:40:42.694Z,21.50
2018-09-04T08:43:18.117Z,21.50
2018-09-04T08:45:53.634Z,21.20
2018-09-04T08:48:29.082Z,21.10
2018-09-04T08:51:04.548Z,20.70
2018-09-04T08:53:40.170Z,20.50
2018-09-04T08:56:15.434Z,20.20
2018-09-04T08:58:50.975Z,20.10
2018-09-04T09:01:26.492Z,20.20
2018-09-04T09:04:01.918Z,20.20
2018-09-04T09:06:37.237Z,20.30
2018-09-04T09:09:12.937Z,20.40
2018-09-04T09:11:48.245Z,20.40
2018-09-04T09:14:23.690Z,20.40
2018-09-04T09:16:59.307Z,20.80
2018-09-04T09:19:34.788Z,20.90
2018-09-04T09:22:10.073Z,21.20
2018-09-04T09:24:46.052Z,21.40
2018-09-04T09:27:21.506Z,21.30
2018-09-04T09:29:57.018Z,21.10
2018-09-04T09:32:32.684Z,21.40
2018-09-04T09:35:08.053Z,21.50
2018-09-04T09:37:43.501Z,21.60
2018-09-04T09:40:18.769Z,21.80
2018-09-04T09:42:54.178Z,21.90
2018-09-04T09:45:29.745Z,21.70
2018-09-04T09:48:05.195Z,21.60
2018-09-04T09:50:40.478Z,21.90
2018-09-04T09:53:16.167Z,21.90
2018-09-04T09:55:51.456Z,22.20
2018-09-04T09:58:27.052Z,22.00
2018-09-04T10:01:07.858Z,22.10
2018-09-04T10:03:48.478Z,22.10
2018-09-04T10:06:23.929Z,22.10
2018-09-04T10:08:59.326Z,22.30
2018-09-04T10:11:34.929Z,22.40
2018-09-04T10:14:10.242Z,22.30
2018-09-04T10:16:45.633Z,22.40
2018-09-04T10:19:20.960Z,22.30
2018-09-04T10:21:56.373Z,22.40
2018-09-04T10:24:31.758Z,22.30
2018-09-04T10:27:07.113Z,22.30
2018-09-04T10:29:42.344Z,22.30
2018-09-04T10:32:17.736Z,22.70
2018-09-04T10:34:53.113Z,22.80
2018-09-04T10:37:28.681Z,22.70
2018-09-04T10:40:09.262Z,22.60
2018-09-04T10:42:44.721Z,22.70
2018-09-04T10:45:25.448Z,22.90
2018-09-04T10:48:01.288Z,22.90
2018-09-04T10:50:36.661Z,23.00
2018-09-04T10:53:11.990Z,23.10
2018-09-04T10:55:47.685Z,23.00
2018-09-04T10:58:23.160Z,23.10
2018-09-04T11:00:58.960Z,23.00
2018-09-04T11:03:34.453Z,23.00
2018-09-04T11:06:09.949Z,23.20
2018-09-04T11:08:45.427Z,23.40
2018-09-04T11:11:20.952Z,23.60
2018-09-04T11:13:56.405Z,23.90
2018-09-04T11:16:31.825Z,23.80
2018-09-04T11:19:07.493Z,23.70
2018-09-04T11:21:42.829Z,23.80
2018-09-04T11:24:18.165Z,23.80
2018-09-04T11:26:53.660Z,23.60
2018-09-04T11:29:29.281Z,23.80
2018-09-04T11:32:04.788Z,23.80
2018-09-04T11:34:40.341Z,23.50
2018-09-04T11:37:15.706Z,23.50
2018-09-04T11:39:51.014Z,23.70
2018-09-04T11:42:26.395Z,24.00
2018-09-04T11:45:02.202Z,24.20
2018-09-04T11:47:37.870Z,24.30
2018-09-04T11:50:13.312Z,24.20
2018-09-04T11:52:48.527Z,23.90
2018-09-04T11:55:24.380Z,24.00
2018-09-04T11:57:59.669Z,24.00
2018-09-04T12:00:38.162Z,24.20
2018-09-04T12:03:14.597Z,24.20
2018-09-04T12:05:50.141Z,24.50
2018-09-04T12:08:25.499Z,24.60
2018-09-04T12:11:00.952Z,24.60
2018-09-04T12:13:36.157Z,24.50
2018-09-04T12:16:11.533Z,24.50
2018-09-04T12:18:47.025Z,24.50
2018-09-04T12:21:22.765Z,24.50
2018-09-04T12:23:58.000Z,24.40
2018-09-04T12:26:33.468Z,24.10
2018-09-04T12:29:08.794Z,24.20
2018-09-04T12:31:44.389Z,24.30
2018-09-04T12:34:19.838Z,24.40
2018-09-04T12:36:55.477Z,24.70
2018-09-04T12:39:30.797Z,24.90
2018-09-04T12:42:06.282Z,25.00
2018-09-04T12:44:41.650Z,25.10
2018-09-04T12:47:17.254Z,24.90
2018-09-04T12:49:52.661Z,24.80
2018-09-04T12:52:28.050Z,24.90
2018-09-04T12:55:03.363Z,25.00
2018-09-04T12:57:38.787Z,24.80
2018-09-04T13:00:14.094Z,24.90
2018-09-04T13:02:49.861Z,24.70
2018-09-04T13:05:25.377Z,24.90
2018-09-04T13:08:00.789Z,25.20
2018-09-04T13:10:36.136Z,25.20
2018-09-04T13:13:11.512Z,25.20
2018-09-04T13:15:49.004Z,25.10
2018-09-04T13:18:25.625Z,25.10
2018-09-04T13:21:07.446Z,25.10
2018-09-04T13:23:43.000Z,25.10
2018-09-04T13:26:18.444Z,25.20
2018-09-04T13:28:53.897Z,25.20
2018-09-04T13:31:29.286Z,25.30
2018-09-04T13:34:04.897Z,24.90
2018-09-04T13:36:40.334Z,25.10
2018-09-04T13:39:15.702Z,25.00
2018-09-04T13:41:51.042Z,25.20
2018-09-04T13:44:26.639Z,25.00
2018-09-04T13:47:02.033Z,24.90
2018-09-04T13:49:37.788Z,25.00
2018-09-04T13:52:13.081Z,25.00
2018-09-04T13:54:48.484Z,24.90
2018-09-04T13:57:24.323Z,25.00
2018-09-04T13:59:59.863Z,25.00
2018-09-04T14:02:35.324Z,24.90
2018-09-04T14:05:10.703Z,24.90
2018-09-04T14:07:45.977Z,25.00
2018-09-04T14:10:21.746Z,24.80
2018-09-04T14:12:57.050Z,24.80
2018-09-04T14:15:32.448Z,24.90
2018-09-04T14:18:07.969Z,24.80
2018-09-04T14:20:43.415Z,24.80
2018-09-04T14:23:18.857Z,24.80
2018-09-04T14:25:54.318Z,24.70
2018-09-04T14:28:44.829Z,24.70
2018-09-04T14:31:05.596Z,24.80
2018-09-04T14:33:41.043Z,24.80
2018-09-04T14:36:16.451Z,24.80
2018-09-04T14:38:51.967Z,24.80
2018-09-04T14:41:27.478Z,24.80
2018-09-04T14:44:02.919Z,24.80
2018-09-04T14:46:38.613Z,24.70
2018-09-04T14:49:13.842Z,24.70
2018-09-04T14:51:49.490Z,24.60
2018-09-04T14:54:25.007Z,24.60
2018-09-04T14:57:00.463Z,24.60
2018-09-04T14:59:35.836Z,24.70
2018-09-04T15:02:11.253Z,24.80
2018-09-04T15:04:46.622Z,24.70
2018-09-04T15:07:22.237Z,24.70
2018-09-04T15:09:57.885Z,24.60
2018-09-04T15:12:33.305Z,24.60
2018-09-04T15:15:09.144Z,24.50
2018-09-04T15:17:44.646Z,24.30
2018-09-04T15:20:20.154Z,24.20
2018-09-04T15:22:55.750Z,24.20
2018-09-04T15:25:31.324Z,24.30
2018-09-04T15:28:06.650Z,24.30
2018-09-04T15:30:41.929Z,24.20
2018-09-04T15:33:17.383Z,24.20
2018-09-04T15:35:52.734Z,24.00
2018-09-04T15:38:28.145Z,23.80
2018-09-04T15:41:03.633Z,23.90
2018-09-04T15:43:39.157Z,23.90
2018-09-04T15:46:14.685Z,23.80
2018-09-04T15:48:55.610Z,23.80
2018-09-04T15:51:31.189Z,23.60
2018-09-04T15:54:06.612Z,23.40
2018-09-04T15:56:41.952Z,23.40
2018-09-04T15:59:17.313Z,23.50
2018-09-04T16:01:52.804Z,23.40
2018-09-04T16:04:28.179Z,23.30
2018-09-04T16:07:03.541Z,23.30
2018-09-04T16:09:39.350Z,23.20
2018-09-04T16:12:14.573Z,23.10
2018-09-04T16:14:49.959Z,23.00
2018-09-04T16:17:25.509Z,22.90
2018-09-04T16:20:01.253Z,22.90
2018-09-04T16:22:36.619Z,22.80
2018-09-04T16:25:11.989Z,22.80
2018-09-04T16:27:47.375Z,22.70
2018-09-04T16:30:22.825Z,22.70
2018-09-04T16:32:58.281Z,22.50
2018-09-04T16:35:33.735Z,22.40
2018-09-04T16:38:09.596Z,22.40
2018-09-04T16:40:45.088Z,22.20
2018-09-04T16:43:20.519Z,22.10
2018-09-04T16:45:55.984Z,22.00
2018-09-04T16:48:32.309Z,21.90
2018-09-04T16:51:07.689Z,21.90
2018-09-04T16:53:43.184Z,21.80
2018-09-04T16:56:18.668Z,21.80
2018-09-04T16:58:54.090Z,21.70
2018-09-04T17:01:29.529Z,21.60
2018-09-04T17:04:04.984Z,21.50
2018-09-04T17:07:11.981Z,21.40
2018-09-04T17:09:47.393Z,21.40
2018-09-04T17:12:22.816Z,21.30
2018-09-04T17:14:59.103Z,21.20
2018-09-04T17:17:35.650Z,21.20
2018-09-04T17:20:10.986Z,21.10
2018-09-04T17:22:46.515Z,21.00
2018-09-04T17:25:22.021Z,20.90
2018-09-04T17:27:57.583Z,20.80
2018-09-04T17:30:33.063Z,20.80
2018-09-04T17:33:08.553Z,20.70
2018-09-04T17:35:43.992Z,20.70
2018-09-04T17:38:19.531Z,20.50
2018-09-04T17:40:55.051Z,20.50
2018-09-04T17:43:30.618Z,20.40
2018-09-04T17:46:06.660Z,20.30
2018-09-04T17:48:42.314Z,20.30
2018-09-04T17:51:17.792Z,20.30
2018-09-04T17:53:53.101Z,20.20
2018-09-04T17:56:28.390Z,20.10
2018-09-04T17:59:03.890Z,20.10
2018-09-04T18:01:39.122Z,20.00
2018-09-04T18:04:14.660Z,19.90
2018-09-04T18:06:50.136Z,19.80
2018-09-04T18:09:25.629Z,19.70
2018-09-04T18:12:01.104Z,19.60
2018-09-04T18:14:36.507Z,19.50
2018-09-04T18:17:12.152Z,19.50
2018-09-04T18:19:47.705Z,19.40
2018-09-04T18:22:23.044Z,19.30
2018-09-04T18:24:58.468Z,19.20
2018-09-04T18:27:33.938Z,19.20
2018-09-04T18:30:09.589Z,19.10
2018-09-04T18:32:45.049Z,19.00
2018-09-04T18:35:20.631Z,18.90
2018-09-04T18:37:56.070Z,18.90
2018-09-04T18:40:31.831Z,18.80
2018-09-04T18:43:07.349Z,18.70
2018-09-04T18:45:52.616Z,18.70
2018-09-04T18:48:34.682Z,18.60
2018-09-04T18:51:10.264Z,18.60
2018-09-04T18:53:45.648Z,18.50
2018-09-04T18:56:27.881Z,18.40
2018-09-04T18:59:03.426Z,18.40
2018-09-04T19:01:39.438Z,18.30
2018-09-04T19:04:21.872Z,18.30
2018-09-04T19:06:57.306Z,18.20
2018-09-04T19:09:32.817Z,18.20
2018-09-04T19:12:08.685Z,18.20
2018-09-04T19:14:44.156Z,18.10
2018-09-04T19:17:19.770Z,18.10
2018-09-04T19:19:55.150Z,18.00
2018-09-04T19:22:30.805Z,18.00
2018-09-04T19:25:06.178Z,17.90
2018-09-04T19:27:41.788Z,17.90
2018-09-04T19:30:17.169Z,17.80
2018-09-04T19:32:52.688Z,17.80
2018-09-04T19:35:28.282Z,17.80
2018-09-04T19:38:04.361Z,17.70
2018-09-04T19:40:39.668Z,17.70
2018-09-04T19:43:15.330Z,17.60
2018-09-04T19:45:50.672Z,17.50
2018-09-04T19:48:32.572Z,17.40
2018-09-04T19:51:07.972Z,17.40
2018-09-04T19:53:43.408Z,17.40
2018-09-04T19:56:18.773Z,17.40
2018-09-04T19:58:54.342Z,17.20
2018-09-04T20:01:29.777Z,17.20
2018-09-04T20:04:05.427Z,17.20
2018-09-04T20:06:40.761Z,17.10
2018-09-04T20:09:16.281Z,17.10
2018-09-04T20:11:51.840Z,17.10
2018-09-04T20:14:27.339Z,17.00
2018-09-04T20:17:02.928Z,17.00
2018-09-04T20:19:38.529Z,17.00
2018-09-04T20:22:13.993Z,17.00
2018-09-04T20:24:49.604Z,17.00
2018-09-04T20:27:26.079Z,16.90
2018-09-04T20:30:01.483Z,16.90
2018-09-04T20:32:37.176Z,16.90
2018-09-04T20:35:13.005Z,16.80
2018-09-04T20:37:49.396Z,16.80
2018-09-04T20:40:24.937Z,16.70
2018-09-04T20:43:00.637Z,16.80
2018-09-04T20:45:36.224Z,16.70
2018-09-04T20:48:11.821Z,16.70
2018-09-04T20:50:47.384Z,16.60
2018-09-04T20:53:22.744Z,16.60
2018-09-04T20:55:58.081Z,16.60
2018-09-04T20:58:50.997Z,16.60
2018-09-04T21:01:43.615Z,16.50
2018-09-04T21:04:36.285Z,16.50
2018-09-04T21:07:14.232Z,16.50
2018-09-04T21:09:54.844Z,16.40
2018-09-04T21:12:30.352Z,16.40
2018-09-04T21:15:06.169Z,16.30
2018-09-04T21:17:41.594Z,16.30
2018-09-04T21:20:23.221Z,16.40
2018-09-04T21:22:58.901Z,16.30
2018-09-04T21:25:34.297Z,16.30
2018-09-04T21:28:09.850Z,16.20
2018-09-04T21:30:45.199Z,16.20
2018-09-04T21:33:20.570Z,16.10
2018-09-04T21:35:55.982Z,16.10
2018-09-04T21:38:31.386Z,16.00
2018-09-04T21:41:06.717Z,16.00
2018-09-04T21:43:42.292Z,16.00
2018-09-04T21:46:17.696Z,15.90
2018-09-04T21:48:53.451Z,15.90
2018-09-04T21:51:28.937Z,16.00
2018-09-04T21:54:04.456Z,15.90
2018-09-04T21:56:40.078Z,15.90
2018-09-04T21:59:15.672Z,15.80
2018-09-04T22:01:50.923Z,15.90
2018-09-04T22:04:26.453Z,15.80
2018-09-04T22:07:01.976Z,15.80
2018-09-04T22:09:38.337Z,15.80
2018-09-04T22:12:13.736Z,15.80
2018-09-04T22:14:49.373Z,15.80
2018-09-04T22:17:24.757Z,15.80
2018-09-04T22:20:00.460Z,15.80
2018-09-04T22:22:35.912Z,15.80
2018-09-04T22:25:11.418Z,15.80
2018-09-04T22:27:46.865Z,15.80
2018-09-04T22:30:25.414Z,15.70
2018-09-04T22:33:00.870Z,15.70
2018-09-04T22:35:36.280Z,15.70
2018-09-04T22:38:11.582Z,15.60
2018-09-04T22:40:47.172Z,15.60
2018-09-04T22:43:22.637Z,15.50
2018-09-04T22:45:58.051Z,15.50
2018-09-04T22:48:33.503Z,15.50
2018-09-04T22:51:14.314Z,15.50
2018-09-04T22:53:49.679Z,15.50
2018-09-04T22:56:25.044Z,15.50
2018-09-04T22:59:00.408Z,15.40
2018-09-04T23:01:35.871Z,15.40
2018-09-04T23:04:11.214Z,15.40
2018-09-04T23:06:46.841Z,15.30
2018-09-04T23:09:22.186Z,15.30
2018-09-04T23:11:57.605Z,15.30
2018-09-04T23:14:33.069Z,15.30
2018-09-04T23:17:08.518Z,15.30
2018-09-04T23:19:43.964Z,15.20
2018-09-04T23:22:19.483Z,15.20
2018-09-04T23:24:54.851Z,15.10
2018-09-04T23:27:30.290Z,15.20
2018-09-04T23:30:05.984Z,15.10
2018-09-04T23:32:41.652Z,15.10
2018-09-04T23:35:17.089Z,15.20
2018-09-04T23:37:52.501Z,15.20
2018-09-04T23:40:28.539Z,15.20
2018-09-04T23:43:04.323Z,15.20
2018-09-04T23:45:39.657Z,15.20
2018-09-04T23:48:15.373Z,15.10
2018-09-04T23:50:50.729Z,15.10
2018-09-04T23:53:26.265Z,15.10
2018-09-04T23:56:01.705Z,15.10
2018-09-04T23:58:37.104Z,15.10
